createdAt,value
2023-04-08T00:00:01.780Z,9.97
2023-04-08T00:02:03.990Z,11.63
2023-04-08T00:04:06.342Z,11.20
2023-04-08T00:06:08.559Z,11.97
2023-04-08T00:08:10.607Z,12.57
2023-04-08T00:10:12.628Z,11.23
2023-04-08T00:12:14.617Z,11.40
2023-04-08T00:14:16.624Z,10.83
2023-04-08T00:16:18.703Z,10.80
2023-04-08T00:18:20.877Z,9.87
2023-04-08T00:20:24.276Z,11.53
2023-04-08T00:22:26.386Z,10.40
2023-04-08T00:24:28.567Z,10.80
2023-04-08T00:26:30.913Z,10.90
2023-04-08T00:28:32.888Z,10.90
2023-04-08T00:30:34.995Z,13.90
2023-04-08T00:32:38.342Z,9.33
2023-04-08T00:34:40.347Z,14.30
2023-04-08T00:36:42.425Z,15.50
2023-04-08T00:38:44.547Z,12.73
2023-04-08T00:40:46.654Z,13.70
2023-04-08T00:42:48.618Z,11.40
2023-04-08T00:44:50.917Z,12.97
2023-04-08T00:46:53.004Z,11.00
2023-04-08T00:48:55.666Z,11.20
2023-04-08T00:50:58.551Z,12.07
2023-04-08T00:53:00.963Z,12.10
2023-04-08T00:55:03.310Z,14.20
2023-04-08T00:57:06.453Z,12.77
2023-04-08T00:59:08.537Z,12.33
2023-04-08T01:01:15.857Z,12.37
2023-04-08T01:03:23.015Z,11.10
2023-04-08T01:05:46.718Z,12.20
2023-04-08T01:07:50.040Z,17.20
2023-04-08T01:09:54.956Z,12.93
2023-04-08T01:11:57.876Z,13.77
2023-04-08T01:14:02.574Z,14.30
2023-04-08T01:16:05.383Z,12.43
2023-04-08T01:18:09.031Z,13.13
2023-04-08T01:20:12.122Z,14.70
2023-04-08T01:22:28.458Z,12.47
2023-04-08T01:24:34.173Z,17.90
2023-04-08T01:26:36.300Z,12.47
2023-04-08T01:28:38.736Z,18.00
2023-04-08T01:30:41.874Z,15.67
2023-04-08T01:32:45.553Z,19.60
2023-04-08T01:34:48.090Z,17.20
2023-04-08T01:36:51.378Z,16.43
2023-04-08T01:38:53.535Z,17.03
2023-04-08T01:40:56.039Z,18.33
2023-04-08T01:42:59.216Z,20.63
2023-04-08T01:45:01.672Z,20.13
2023-04-08T01:47:03.971Z,21.87
2023-04-08T01:49:06.895Z,21.57
2023-04-08T01:51:11.703Z,15.57
2023-04-08T01:53:14.031Z,21.80
2023-04-08T01:55:16.649Z,17.30
2023-04-08T01:57:23.993Z,18.23
2023-04-08T01:59:29.963Z,24.63
2023-04-08T02:01:32.968Z,18.13
2023-04-08T02:03:36.345Z,21.40
2023-04-08T02:05:39.758Z,23.27
2023-04-08T02:07:42.180Z,21.60
2023-04-08T02:09:44.817Z,19.90
2023-04-08T02:11:46.803Z,19.03
2023-04-08T02:13:49.205Z,21.87
2023-04-08T02:15:54.050Z,21.70
2023-04-08T02:18:03.815Z,21.57
2023-04-08T02:20:08.395Z,23.43
2023-04-08T02:22:17.756Z,25.23
2023-04-08T02:24:21.180Z,22.83
2023-04-08T02:26:24.360Z,32.47
2023-04-08T02:28:26.746Z,24.13
2023-04-08T02:30:29.237Z,19.97
2023-04-08T02:32:33.234Z,25.83
2023-04-08T02:34:35.439Z,25.20
2023-04-08T02:36:39.017Z,22.20
2023-04-08T02:38:41.737Z,28.70
2023-04-08T02:40:44.061Z,20.10
2023-04-08T02:42:46.245Z,19.40
2023-04-08T02:44:48.319Z,19.07
2023-04-08T02:46:50.375Z,22.10
2023-04-08T02:48:53.868Z,24.23
2023-04-08T02:50:55.956Z,18.37
2023-04-08T02:52:57.905Z,15.27
2023-04-08T02:54:59.981Z,14.30
2023-04-08T02:57:02.017Z,20.20
2023-04-08T02:59:04.161Z,16.07
2023-04-08T03:01:06.690Z,16.93
2023-04-08T03:03:09.016Z,17.73
2023-04-08T03:05:11.749Z,16.30
2023-04-08T03:07:13.758Z,13.80
2023-04-08T03:09:15.672Z,27.73
2023-04-08T03:11:17.720Z,18.83
2023-04-08T03:13:19.712Z,16.47
2023-04-08T03:15:21.800Z,16.97
2023-04-08T03:17:23.921Z,16.97
2023-04-08T03:19:25.924Z,14.77
2023-04-08T03:21:28.084Z,18.33
2023-04-08T03:23:30.359Z,15.80
2023-04-08T03:25:32.551Z,15.30
2023-04-08T03:27:35.853Z,18.40
2023-04-08T03:29:38.083Z,18.33
2023-04-08T03:31:40.722Z,16.03
2023-04-08T03:33:42.855Z,19.60
2023-04-08T03:35:44.905Z,17.60
2023-04-08T03:37:47.146Z,19.27
2023-04-08T03:39:49.167Z,15.90
2023-04-08T03:41:51.262Z,15.50
2023-04-08T03:43:53.241Z,17.57
2023-04-08T03:45:56.264Z,12.80
2023-04-08T03:47:58.416Z,15.87
2023-04-08T03:50:00.638Z,18.33
2023-04-08T03:52:02.831Z,11.80
2023-04-08T03:54:05.601Z,13.00
2023-04-08T03:56:08.072Z,18.00
2023-04-08T03:58:10.178Z,13.90
2023-04-08T04:00:12.911Z,16.07
2023-04-08T04:02:15.066Z,15.10
2023-04-08T04:04:17.350Z,15.07
2023-04-08T04:06:19.414Z,14.47
2023-04-08T04:08:21.475Z,14.43
2023-04-08T04:10:23.610Z,13.63
2023-04-08T04:12:26.486Z,13.40
2023-04-08T04:14:28.463Z,13.23
2023-04-08T04:16:32.725Z,13.63
2023-04-08T04:18:35.043Z,13.60
2023-04-08T04:20:40.603Z,13.50
2023-04-08T04:22:42.893Z,15.10
2023-04-08T04:24:50.634Z,11.40
2023-04-08T04:26:52.744Z,10.57
2023-04-08T04:28:54.858Z,11.73
2023-04-08T04:30:56.950Z,11.83
2023-04-08T04:32:59.135Z,13.10
2023-04-08T04:35:01.344Z,12.50
2023-04-08T04:37:03.274Z,11.80
2023-04-08T04:39:05.634Z,10.20
2023-04-08T04:41:07.612Z,12.47
2023-04-08T04:43:10.109Z,12.27
2023-04-08T04:45:12.672Z,11.90
2023-04-08T04:47:16.112Z,12.20
2023-04-08T04:49:18.338Z,13.10
2023-04-08T04:51:20.687Z,13.57
2023-04-08T04:53:22.780Z,13.93
2023-04-08T04:55:24.952Z,14.70
2023-04-08T04:57:26.921Z,15.83
2023-04-08T04:59:29.025Z,15.43
2023-04-08T05:01:31.100Z,19.20
2023-04-08T05:03:33.221Z,17.87
2023-04-08T05:05:35.350Z,16.27
2023-04-08T05:07:38.177Z,16.63
2023-04-08T05:09:40.275Z,18.17
2023-04-08T05:11:42.453Z,19.23
2023-04-08T05:13:45.086Z,17.90
2023-04-08T05:15:47.229Z,25.37
2023-04-08T05:17:49.348Z,19.13
2023-04-08T05:19:53.287Z,20.03
2023-04-08T05:21:55.468Z,21.40
2023-04-08T05:23:57.697Z,21.93
2023-04-08T05:25:59.769Z,21.07
2023-04-08T05:28:02.028Z,17.83
2023-04-08T05:30:04.541Z,19.47
2023-04-08T05:32:06.702Z,25.87
2023-04-08T05:34:08.802Z,20.53
2023-04-08T05:36:11.555Z,24.93
2023-04-08T05:38:13.571Z,27.23
2023-04-08T05:40:15.772Z,26.17
2023-04-08T05:42:17.876Z,27.47
2023-04-08T05:44:19.848Z,24.97
2023-04-08T05:46:21.914Z,25.60
2023-04-08T05:48:23.946Z,33.43
2023-04-08T05:50:26.128Z,35.00
2023-04-08T05:52:28.212Z,33.10
2023-04-08T05:54:30.366Z,28.63
2023-04-08T05:56:32.430Z,31.80
2023-04-08T05:58:34.458Z,34.33
2023-04-08T06:00:36.521Z,33.97
2023-04-08T06:02:39.014Z,34.50
2023-04-08T06:04:41.300Z,34.47
2023-04-08T06:06:43.800Z,33.77
2023-04-08T06:08:45.829Z,35.77
2023-04-08T06:10:51.621Z,35.97
2023-04-08T06:12:53.691Z,32.80
2023-04-08T06:14:56.274Z,31.80
2023-04-08T06:16:58.291Z,35.07
2023-04-08T06:19:00.723Z,28.60
2023-04-08T06:21:02.956Z,35.90
2023-04-08T06:23:05.017Z,31.30
2023-04-08T06:25:07.464Z,37.20
2023-04-08T06:27:09.497Z,39.07
2023-04-08T06:29:11.669Z,40.70
2023-04-08T06:31:13.681Z,40.20
2023-04-08T06:33:16.018Z,40.53
2023-04-08T06:35:18.263Z,35.03
2023-04-08T06:37:20.338Z,32.40
2023-04-08T06:39:22.432Z,34.90
2023-04-08T06:41:24.802Z,28.63
2023-04-08T06:43:27.632Z,38.87
2023-04-08T06:45:29.714Z,40.67
2023-04-08T06:47:31.830Z,36.43
2023-04-08T06:49:33.848Z,37.80
2023-04-08T06:51:36.487Z,43.87
2023-04-08T06:53:38.846Z,40.83
2023-04-08T06:55:41.817Z,35.73
2023-04-08T06:57:43.869Z,38.20
2023-04-08T06:59:46.815Z,39.13
2023-04-08T07:01:48.936Z,41.80
2023-04-08T07:03:51.207Z,41.40
2023-04-08T07:05:53.679Z,40.13
2023-04-08T07:07:55.734Z,48.30
2023-04-08T07:09:57.814Z,51.83
2023-04-08T07:11:59.974Z,38.90
2023-04-08T07:14:01.996Z,37.17
2023-04-08T07:16:04.479Z,36.07
2023-04-08T07:18:06.570Z,39.57
2023-04-08T07:20:09.046Z,41.43
2023-04-08T07:22:11.462Z,33.90
2023-04-08T07:24:13.642Z,32.07
2023-04-08T07:26:15.790Z,42.83
2023-04-08T07:28:17.876Z,40.03
2023-04-08T07:30:20.239Z,37.40
2023-04-08T07:32:22.404Z,33.70
2023-04-08T07:34:24.483Z,31.80
2023-04-08T07:36:29.313Z,36.77
2023-04-08T07:38:33.951Z,30.83
2023-04-08T07:40:38.985Z,33.80
2023-04-08T07:42:41.606Z,35.60
2023-04-08T07:44:43.674Z,38.13
2023-04-08T07:46:46.406Z,35.27
2023-04-08T07:48:48.587Z,35.87
2023-04-08T07:51:08.531Z,38.17
2023-04-08T07:53:12.620Z,39.50
2023-04-08T07:55:14.862Z,45.50
2023-04-08T07:57:16.988Z,55.77
2023-04-08T07:59:19.301Z,61.43
2023-04-08T08:01:22.733Z,62.93
2023-04-08T08:03:25.540Z,54.20
2023-04-08T08:05:27.831Z,46.27
2023-04-08T08:07:29.936Z,37.50
2023-04-08T08:09:32.271Z,34.57
2023-04-08T08:11:34.492Z,35.40
2023-04-08T08:13:36.707Z,34.83
2023-04-08T08:15:38.835Z,39.00
2023-04-08T08:17:41.018Z,31.10
2023-04-08T08:19:42.997Z,33.00
2023-04-08T08:21:45.054Z,33.67
2023-04-08T08:23:47.283Z,32.73
2023-04-08T08:25:49.294Z,37.43
2023-04-08T08:27:51.388Z,32.10
2023-04-08T08:29:53.425Z,35.50
2023-04-08T08:31:55.402Z,39.47
2023-04-08T08:33:57.415Z,32.70
2023-04-08T08:36:00.210Z,34.30
2023-04-08T08:38:02.678Z,32.10
2023-04-08T08:40:05.187Z,34.87
2023-04-08T08:42:07.175Z,34.50
2023-04-08T08:44:10.125Z,35.03
2023-04-08T08:46:12.781Z,34.00
2023-04-08T08:48:14.785Z,38.70
2023-04-08T08:50:16.839Z,40.93
2023-04-08T08:52:18.881Z,32.30
2023-04-08T08:54:20.950Z,36.73
2023-04-08T08:56:23.023Z,33.17
2023-04-08T08:58:28.627Z,37.30
2023-04-08T09:00:37.649Z,32.73
2023-04-08T09:02:41.401Z,39.90
2023-04-08T09:04:56.501Z,38.30
2023-04-08T09:07:11.193Z,37.57
2023-04-08T09:09:13.912Z,31.53
2023-04-08T09:11:18.011Z,34.30
2023-04-08T09:13:20.098Z,31.87
2023-04-08T09:15:22.356Z,31.10
2023-04-08T09:17:38.746Z,31.10
2023-04-08T09:20:12.143Z,30.50
2023-04-08T09:22:14.187Z,25.60
2023-04-08T09:24:29.961Z,28.70
2023-04-08T09:26:32.281Z,31.30
2023-04-08T09:28:34.468Z,31.73
2023-04-08T09:30:36.736Z,26.40
2023-04-08T09:32:52.402Z,31.60
2023-04-08T09:34:54.526Z,25.77
2023-04-08T09:36:56.713Z,25.07
2023-04-08T09:38:59.056Z,31.07
2023-04-08T09:41:05.394Z,28.23
2023-04-08T09:43:09.696Z,28.00
2023-04-08T09:45:13.628Z,25.53
2023-04-08T09:47:26.436Z,29.20
2023-04-08T09:49:39.053Z,25.97
2023-04-08T09:51:46.559Z,27.53
2023-04-08T09:53:53.537Z,25.70
2023-04-08T09:55:57.423Z,27.93
2023-04-08T09:58:02.180Z,25.47
2023-04-08T10:00:09.014Z,29.63
2023-04-08T10:02:25.966Z,27.83
2023-04-08T10:04:29.432Z,29.30
2023-04-08T10:06:32.830Z,33.50
2023-04-08T10:08:35.445Z,30.43
2023-04-08T10:10:40.072Z,30.87
2023-04-08T10:12:42.544Z,26.13
2023-04-08T10:15:26.357Z,26.30
2023-04-08T10:17:28.809Z,31.50
2023-04-08T10:19:39.646Z,27.10
2023-04-08T10:21:59.746Z,29.37
2023-04-08T10:24:06.441Z,30.87
2023-04-08T10:26:35.931Z,26.10
2023-04-08T10:28:38.136Z,28.60
2023-04-08T10:30:49.922Z,28.27
2023-04-08T10:32:52.468Z,27.37
2023-04-08T10:34:54.818Z,28.63
2023-04-08T10:36:59.079Z,28.50
2023-04-08T10:39:01.344Z,27.90
2023-04-08T10:41:04.215Z,27.93
2023-04-08T10:43:06.463Z,30.17
2023-04-08T10:45:08.937Z,43.03
2023-04-08T10:47:11.403Z,29.20
2023-04-08T10:49:14.587Z,35.80
2023-04-08T10:51:16.852Z,30.37
2023-04-08T10:53:19.187Z,29.23
2023-04-08T10:55:25.335Z,25.97
2023-04-08T10:57:27.605Z,31.13
2023-04-08T10:59:32.226Z,28.50
2023-04-08T11:01:41.352Z,31.90
2023-04-08T11:03:43.950Z,29.80
2023-04-08T11:05:47.100Z,25.33
2023-04-08T11:07:49.618Z,25.90
2023-04-08T11:09:52.115Z,26.70
2023-04-08T11:11:54.476Z,26.00
2023-04-08T11:13:57.416Z,23.13
2023-04-08T11:16:00.531Z,24.50
2023-04-08T11:18:04.435Z,25.57
2023-04-08T11:20:08.809Z,20.87
2023-04-08T11:22:12.932Z,21.93
2023-04-08T11:24:16.696Z,24.13
2023-04-08T11:26:20.024Z,23.90
2023-04-08T11:28:22.485Z,26.33
2023-04-08T11:30:24.770Z,24.27
2023-04-08T11:32:27.151Z,26.80
2023-04-08T11:34:29.437Z,23.53
2023-04-08T11:36:31.728Z,21.10
2023-04-08T11:38:33.888Z,25.83
2023-04-08T11:40:36.300Z,21.03
2023-04-08T11:42:39.226Z,21.37
2023-04-08T11:44:41.470Z,25.80
2023-04-08T11:46:55.356Z,24.13
2023-04-08T11:49:08.827Z,26.43
2023-04-08T11:51:12.523Z,19.83
2023-04-08T11:53:22.468Z,23.00
2023-04-08T11:55:32.188Z,22.27
2023-04-08T11:57:34.474Z,22.17
2023-04-08T11:59:36.948Z,21.33
2023-04-08T12:01:39.108Z,19.90
2023-04-08T12:04:03.183Z,23.00
2023-04-08T12:06:08.839Z,20.30
2023-04-08T12:08:11.075Z,24.63
2023-04-08T12:10:13.671Z,24.00
2023-04-08T12:12:16.124Z,24.53
2023-04-08T12:14:18.340Z,20.27
2023-04-08T12:16:20.912Z,24.97
2023-04-08T12:18:23.456Z,22.60
2023-04-08T12:20:25.799Z,23.10
2023-04-08T12:22:28.346Z,24.33
2023-04-08T12:24:30.784Z,24.07
2023-04-08T12:26:32.946Z,22.80
2023-04-08T12:28:36.199Z,20.10
2023-04-08T12:30:38.394Z,23.60
2023-04-08T12:32:41.412Z,22.57
2023-04-08T12:34:48.649Z,21.30
2023-04-08T12:36:55.646Z,21.33
2023-04-08T12:38:57.888Z,24.57
2023-04-08T12:41:00.050Z,20.90
2023-04-08T12:43:02.330Z,27.33
2023-04-08T12:45:04.846Z,19.37
2023-04-08T12:47:07.149Z,19.13
2023-04-08T12:49:09.718Z,23.00
2023-04-08T12:51:12.041Z,19.57
2023-04-08T12:53:14.237Z,18.43
2023-04-08T12:55:16.467Z,18.83
2023-04-08T12:57:18.729Z,21.10
2023-04-08T12:59:20.891Z,19.20
2023-04-08T13:01:23.314Z,22.20
2023-04-08T13:03:25.958Z,26.80
2023-04-08T13:05:42.166Z,24.70
2023-04-08T13:07:46.420Z,21.93
2023-04-08T13:09:48.723Z,21.23
2023-04-08T13:11:50.910Z,23.03
2023-04-08T13:13:53.172Z,23.20
2023-04-08T13:15:56.635Z,22.93
2023-04-08T13:17:59.738Z,19.93
2023-04-08T13:20:02.085Z,20.63
2023-04-08T13:22:04.309Z,18.17
2023-04-08T13:24:06.746Z,21.10
2023-04-08T13:26:09.104Z,18.70
2023-04-08T13:28:11.589Z,18.50
2023-04-08T13:30:14.160Z,20.10
2023-04-08T13:32:16.478Z,19.10
2023-04-08T13:34:18.678Z,17.70
2023-04-08T13:36:20.836Z,18.23
2023-04-08T13:38:22.953Z,19.00
2023-04-08T13:40:25.482Z,18.47
2023-04-08T13:42:27.715Z,19.23
2023-04-08T13:44:29.995Z,17.20
2023-04-08T13:46:32.207Z,17.53
2023-04-08T13:48:34.358Z,19.10
2023-04-08T13:50:36.694Z,21.77
2023-04-08T13:52:38.853Z,19.47
2023-04-08T13:54:40.969Z,19.30
2023-04-08T13:56:43.152Z,19.67
2023-04-08T13:58:49.784Z,16.43
2023-04-08T14:00:57.457Z,19.27
2023-04-08T14:02:59.789Z,20.57
2023-04-08T14:05:02.019Z,18.07
2023-04-08T14:07:04.210Z,20.60
2023-04-08T14:09:06.939Z,16.50
2023-04-08T14:11:09.105Z,19.67
2023-04-08T14:13:11.261Z,19.30
2023-04-08T14:15:13.396Z,17.33
2023-04-08T14:17:15.679Z,19.53
2023-04-08T14:19:18.308Z,17.07
2023-04-08T14:21:20.471Z,18.13
2023-04-08T14:23:22.677Z,17.20
2023-04-08T14:25:25.220Z,18.73
2023-04-08T14:27:27.970Z,14.70
2023-04-08T14:29:30.193Z,14.40
2023-04-08T14:31:33.561Z,21.77
2023-04-08T14:33:36.144Z,18.37
2023-04-08T14:35:38.354Z,18.80
2023-04-08T14:37:40.625Z,16.33
2023-04-08T14:39:42.907Z,18.10
2023-04-08T14:41:46.724Z,17.30
2023-04-08T14:43:49.281Z,14.20
2023-04-08T14:45:52.148Z,17.63
2023-04-08T14:47:54.396Z,14.40
2023-04-08T14:49:56.539Z,17.43
2023-04-08T14:51:58.732Z,14.63
2023-04-08T14:54:02.104Z,14.17
2023-04-08T14:56:05.185Z,13.13
2023-04-08T14:58:10.328Z,17.17
2023-04-08T15:00:13.178Z,16.70
2023-04-08T15:02:15.453Z,15.33
2023-04-08T15:04:17.807Z,14.23
2023-04-08T15:06:21.759Z,18.63
2023-04-08T15:08:24.116Z,15.33
2023-04-08T15:10:28.041Z,17.97
2023-04-08T15:12:30.545Z,17.17
2023-04-08T15:14:32.803Z,17.57
2023-04-08T15:16:35.205Z,18.07
2023-04-08T15:18:37.533Z,22.30
2023-04-08T15:20:39.809Z,16.80
2023-04-08T15:22:42.197Z,20.53
2023-04-08T15:24:45.302Z,20.90
2023-04-08T15:26:49.085Z,16.87
2023-04-08T15:28:52.836Z,20.83
2023-04-08T15:30:55.283Z,19.80
2023-04-08T15:32:57.635Z,19.57
2023-04-08T15:35:00.645Z,17.90
2023-04-08T15:37:02.929Z,18.73
2023-04-08T15:39:05.162Z,17.27
2023-04-08T15:41:07.326Z,17.30
2023-04-08T15:43:10.750Z,18.07
2023-04-08T15:45:12.931Z,17.90
2023-04-08T15:47:15.131Z,16.33
2023-04-08T15:49:17.332Z,16.17
2023-04-08T15:51:20.369Z,16.17
2023-04-08T15:53:22.956Z,14.87
2023-04-08T15:55:25.267Z,19.73
2023-04-08T15:57:27.954Z,18.10
2023-04-08T15:59:33.366Z,22.27
2023-04-08T16:01:35.787Z,21.27
2023-04-08T16:03:38.892Z,20.47
2023-04-08T16:05:41.980Z,18.10
2023-04-08T16:07:44.174Z,18.73
2023-04-08T16:09:47.153Z,15.47
2023-04-08T16:11:49.404Z,14.80
2023-04-08T16:13:52.319Z,19.30
2023-04-08T16:15:54.583Z,16.70
2023-04-08T16:17:56.789Z,16.03
2023-04-08T16:19:59.057Z,15.40
2023-04-08T16:22:01.652Z,15.30
2023-04-08T16:24:05.776Z,39.30
2023-04-08T16:26:08.735Z,16.07
2023-04-08T16:28:11.218Z,34.73
2023-04-08T16:30:14.163Z,19.70
2023-04-08T16:32:16.528Z,58.17
2023-04-08T16:34:19.181Z,19.27
2023-04-08T16:36:21.489Z,21.80
2023-04-08T16:38:24.593Z,48.63
2023-04-08T16:40:27.326Z,16.23
2023-04-08T16:42:29.494Z,17.97
2023-04-08T16:44:31.693Z,21.73
2023-04-08T16:46:33.951Z,21.53
2023-04-08T16:48:36.298Z,22.93
2023-04-08T16:50:39.651Z,30.57
2023-04-08T16:52:49.224Z,23.13
2023-04-08T16:54:52.318Z,26.60
2023-04-08T16:56:54.481Z,24.70
2023-04-08T16:58:57.073Z,27.77
2023-04-08T17:00:59.324Z,21.83
2023-04-08T17:03:02.437Z,28.70
2023-04-08T17:05:05.049Z,27.20
2023-04-08T17:07:08.325Z,34.03
2023-04-08T17:09:11.020Z,28.47
2023-04-08T17:11:14.746Z,28.83
2023-04-08T17:13:17.250Z,32.20
2023-04-08T17:15:19.601Z,27.87
2023-04-08T17:17:21.813Z,29.47
2023-04-08T17:19:24.049Z,28.03
2023-04-08T17:21:26.924Z,34.10
2023-04-08T17:23:29.067Z,30.13
2023-04-08T17:25:31.468Z,30.83
2023-04-08T17:27:33.714Z,42.87
2023-04-08T17:29:35.885Z,43.17
2023-04-08T17:31:39.724Z,40.10
2023-04-08T17:33:42.040Z,38.87
2023-04-08T17:35:44.349Z,30.30
2023-04-08T17:37:46.555Z,34.87
2023-04-08T17:39:48.795Z,37.03
2023-04-08T17:41:51.031Z,34.67
2023-04-08T17:43:53.270Z,31.47
2023-04-08T17:45:59.802Z,30.10
2023-04-08T17:48:05.483Z,34.93
2023-04-08T17:50:11.599Z,33.97
2023-04-08T17:52:14.477Z,36.37
2023-04-08T17:54:17.320Z,36.47
2023-04-08T17:56:19.459Z,40.97
2023-04-08T17:58:22.715Z,39.17
2023-04-08T18:00:26.337Z,27.17
2023-04-08T18:02:29.170Z,31.83
2023-04-08T18:04:31.564Z,27.53
2023-04-08T18:06:36.562Z,24.33
2023-04-08T18:08:38.648Z,22.67
2023-04-08T18:10:43.332Z,19.50
2023-04-08T18:12:45.904Z,24.87
2023-04-08T18:14:48.113Z,28.00
2023-04-08T18:16:50.364Z,23.70
2023-04-08T18:18:52.627Z,24.57
2023-04-08T18:20:54.801Z,30.03
2023-04-08T18:22:57.144Z,28.60
2023-04-08T18:24:59.286Z,23.57
2023-04-08T18:27:04.791Z,29.40
2023-04-08T18:29:07.961Z,25.40
2023-04-08T18:31:10.210Z,29.03
2023-04-08T18:33:21.780Z,27.70
2023-04-08T18:35:25.398Z,28.83
2023-04-08T18:37:31.172Z,26.40
2023-04-08T18:39:34.063Z,27.90
2023-04-08T18:41:37.360Z,25.00
2023-04-08T18:43:39.505Z,23.67
2023-04-08T18:45:41.730Z,27.97
2023-04-08T18:47:43.876Z,38.40
2023-04-08T18:49:46.465Z,32.87
2023-04-08T18:51:59.363Z,28.77
2023-04-08T18:54:03.866Z,31.53
2023-04-08T18:56:06.280Z,28.23
2023-04-08T18:58:08.431Z,30.53
2023-04-08T19:00:10.756Z,26.50
2023-04-08T19:02:12.948Z,25.83
2023-04-08T19:04:15.262Z,28.57
2023-04-08T19:06:17.540Z,29.47
2023-04-08T19:08:19.693Z,27.77
2023-04-08T19:10:22.038Z,29.83
2023-04-08T19:12:27.016Z,29.10
2023-04-08T19:14:29.261Z,30.50
2023-04-08T19:16:31.443Z,30.20
2023-04-08T19:18:33.650Z,32.30
2023-04-08T19:20:35.819Z,36.10
2023-04-08T19:22:38.720Z,34.37
2023-04-08T19:24:41.003Z,37.17
2023-04-08T19:26:43.340Z,33.07
2023-04-08T19:28:46.220Z,32.07
2023-04-08T19:30:50.040Z,40.73
2023-04-08T19:32:53.851Z,39.40
2023-04-08T19:34:56.049Z,37.27
2023-04-08T19:36:58.181Z,42.17
2023-04-08T19:39:01.553Z,50.20
2023-04-08T19:41:03.851Z,53.87
2023-04-08T19:43:06.379Z,51.10
2023-04-08T19:45:10.961Z,49.03
2023-04-08T19:47:13.440Z,48.20
2023-04-08T19:49:15.603Z,52.53
2023-04-08T19:51:20.331Z,68.47
2023-04-08T19:53:22.530Z,68.70
2023-04-08T19:55:24.669Z,75.97
2023-04-08T19:57:26.927Z,58.30
2023-04-08T19:59:29.543Z,57.10
2023-04-08T20:01:35.928Z,61.10
2023-04-08T20:03:38.226Z,96.73
2023-04-08T20:05:40.649Z,105.40
2023-04-08T20:07:43.347Z,75.30
2023-04-08T20:09:45.555Z,46.67
2023-04-08T20:11:47.765Z,43.80
2023-04-08T20:13:51.446Z,38.30
2023-04-08T20:15:53.703Z,29.97
2023-04-08T20:17:56.568Z,29.87
2023-04-08T20:19:58.840Z,31.63
2023-04-08T20:22:01.669Z,36.80
2023-04-08T20:24:04.003Z,36.70
2023-04-08T20:26:06.456Z,53.47
2023-04-08T20:28:09.048Z,113.73
2023-04-08T20:30:12.180Z,91.00
2023-04-08T20:32:14.423Z,128.03
2023-04-08T20:34:16.649Z,77.07
2023-04-08T20:36:19.013Z,53.97
2023-04-08T20:38:21.761Z,44.57
2023-04-08T20:40:23.973Z,41.73
2023-04-08T20:42:26.648Z,37.43
2023-04-08T20:44:28.854Z,39.80
2023-04-08T20:46:31.088Z,31.83
2023-04-08T20:48:33.460Z,35.93
2023-04-08T20:50:35.708Z,32.30
2023-04-08T20:52:38.754Z,40.93
2023-04-08T20:54:40.885Z,35.33
2023-04-08T20:56:43.167Z,37.90
2023-04-08T20:58:45.487Z,32.60
2023-04-08T21:00:47.860Z,42.90
2023-04-08T21:02:51.040Z,132.50
2023-04-08T21:04:53.362Z,121.87
2023-04-08T21:06:55.658Z,105.60
2023-04-08T21:08:57.832Z,83.20
2023-04-08T21:10:59.953Z,70.60
2023-04-08T21:13:02.134Z,49.43
2023-04-08T21:15:04.480Z,41.17
2023-04-08T21:17:08.322Z,45.57
2023-04-08T21:19:10.624Z,40.40
2023-04-08T21:21:12.863Z,43.37
2023-04-08T21:23:15.391Z,46.77
2023-04-08T21:25:18.184Z,98.87
2023-04-08T21:27:20.384Z,120.47
2023-04-08T21:29:22.517Z,127.20
2023-04-08T21:31:24.758Z,119.80
2023-04-08T21:33:26.826Z,54.47
2023-04-08T21:35:29.012Z,51.80
2023-04-08T21:37:31.205Z,47.07
2023-04-08T21:39:33.321Z,43.73
2023-04-08T21:41:35.556Z,48.50
2023-04-08T21:43:37.803Z,41.60
2023-04-08T21:45:40.020Z,45.73
2023-04-08T21:47:42.230Z,39.33
2023-04-08T21:49:44.632Z,42.37
2023-04-08T21:51:46.870Z,45.07
2023-04-08T21:53:50.848Z,41.50
2023-04-08T21:55:53.413Z,41.83
2023-04-08T21:57:55.608Z,47.50
2023-04-08T21:59:57.911Z,45.17
2023-04-08T22:02:00.458Z,44.50
2023-04-08T22:04:02.722Z,54.73
2023-04-08T22:06:08.216Z,48.00
2023-04-08T22:08:11.641Z,46.50
2023-04-08T22:10:13.844Z,45.10
2023-04-08T22:12:16.224Z,46.70
2023-04-08T22:14:18.441Z,45.10
2023-04-08T22:16:20.733Z,48.73
2023-04-08T22:18:22.877Z,44.20
2023-04-08T22:20:25.054Z,59.17
2023-04-08T22:22:27.228Z,93.43
2023-04-08T22:24:29.496Z,147.83
2023-04-08T22:26:31.673Z,114.93
2023-04-08T22:28:34.457Z,99.50
2023-04-08T22:30:36.802Z,110.57
2023-04-08T22:32:39.128Z,192.30
2023-04-08T22:34:41.435Z,225.40
2023-04-08T22:36:43.544Z,195.07
2023-04-08T22:38:46.443Z,140.00
2023-04-08T22:40:48.440Z,122.47
2023-04-08T22:42:50.588Z,96.30
2023-04-08T22:44:52.558Z,121.17
2023-04-08T22:46:54.516Z,181.97
2023-04-08T22:48:56.551Z,144.03
2023-04-08T22:50:58.662Z,119.50
2023-04-08T22:53:00.837Z,82.40
2023-04-08T22:55:02.926Z,98.07
2023-04-08T22:57:05.015Z,95.40
2023-04-08T22:59:06.958Z,103.83
2023-04-08T23:01:13.770Z,113.40
2023-04-08T23:03:16.221Z,113.00
2023-04-08T23:05:18.620Z,101.50
2023-04-08T23:07:21.039Z,97.37
2023-04-08T23:09:24.634Z,102.47
2023-04-08T23:11:27.290Z,101.03
2023-04-08T23:13:29.833Z,98.10
2023-04-08T23:15:31.986Z,110.53
2023-04-08T23:17:34.073Z,108.80
2023-04-08T23:19:36.119Z,114.33
2023-04-08T23:21:38.218Z,180.57
2023-04-08T23:23:40.423Z,175.93
2023-04-08T23:25:42.408Z,208.63
2023-04-08T23:27:45.734Z,188.73
2023-04-08T23:29:47.776Z,198.03
2023-04-08T23:31:49.823Z,221.33
2023-04-08T23:33:51.820Z,253.40
2023-04-08T23:35:53.875Z,238.23
2023-04-08T23:37:56.160Z,224.53
2023-04-08T23:39:58.287Z,214.17
2023-04-08T23:42:01.724Z,155.67
2023-04-08T23:44:03.766Z,135.37
2023-04-08T23:46:05.934Z,137.20
2023-04-08T23:48:10.031Z,133.20
2023-04-08T23:50:12.418Z,99.80
2023-04-08T23:52:14.455Z,106.50
2023-04-08T23:54:16.632Z,71.20
2023-04-08T23:56:18.664Z,78.07
2023-04-08T23:58:20.718Z,83.77
